Time;durP1;ratioP1;P1;durP2;ratioP2;P2;SDS_P1;SDS_P2;PMS_P1;PMS_P2;Temp;Humidity;BMP_temperature;BMP_pressure;BME280_temperature;BME280_humidity;BME280_pressure;Samples;Min_cycle;Max_cycle;Signal;HPM_P1;HPM_P2
2021/12/01 00:00:07;;;;;;;3.97;3.53;;;;;;;6.12;100.00;98869.06;5033364;28;20588;-72
2021/12/01 00:02:33;;;;;;;3.30;3.00;;;;;;;6.16;100.00;98860.81;5032729;28;20226;-73
2021/12/01 00:05:00;;;;;;;3.30;3.00;;;;;;;6.05;100.00;98863.16;5033162;28;20222;-72
2021/12/01 00:07:28;;;;;;;3.25;2.95;;;;;;;5.97;100.00;98852.00;5031645;28;20186;-72
2021/12/01 00:09:54;;;;;;;3.30;2.78;;;;;;;5.84;100.00;98857.09;5032254;28;20632;-72
2021/12/01 00:12:21;;;;;;;3.17;2.85;;;;;;;5.77;100.00;98847.66;5033223;28;20237;-72
2021/12/01 00:14:48;;;;;;;2.92;2.65;;;;;;;5.68;100.00;98840.09;5033380;28;20298;-71
2021/12/01 00:17:16;;;;;;;3.10;2.80;;;;;;;5.74;100.00;98837.97;5033012;28;20233;-71
2021/12/01 00:19:43;;;;;;;2.92;2.58;;;;;;;5.74;100.00;98837.09;5032251;28;20274;-73
2021/12/01 00:22:09;;;;;;;3.42;3.10;;;;;;;5.79;100.00;98835.09;5032487;28;20274;-71
2021/12/01 00:24:36;;;;;;;2.95;2.65;;;;;;;5.80;100.00;98834.13;5032476;28;20245;-71
2021/12/01 00:27:03;;;;;;;3.30;2.95;;;;;;;5.80;100.00;98826.13;5033313;28;20277;-71
2021/12/01 00:29:30;;;;;;;3.92;3.40;;;;;;;5.77;100.00;98828.97;5032924;28;20238;-71
2021/12/01 00:31:57;;;;;;;3.85;3.20;;;;;;;5.77;100.00;98821.81;5032668;28;20633;-72
2021/12/01 00:34:25;;;;;;;4.03;3.55;;;;;;;5.77;100.00;98816.47;5032903;28;20222;-72
2021/12/01 00:36:51;;;;;;;4.13;3.72;;;;;;;5.78;100.00;98814.66;5032829;28;20241;-72
2021/12/01 00:39:18;;;;;;;3.85;3.55;;;;;;;5.75;100.00;98821.00;5032887;28;20249;-70
2021/12/01 00:41:47;;;;;;;4.47;4.00;;;;;;;5.60;100.00;98809.28;5032632;28;20291;-72
2021/12/01 00:44:14;;;;;;;4.15;3.75;;;;;;;5.51;100.00;98808.88;5032361;28;20204;-73
2021/12/01 00:46:42;;;;;;;4.80;3.80;;;;;;;5.52;100.00;98806.16;5032965;28;20645;-72
2021/12/01 00:49:09;;;;;;;4.47;4.07;;;;;;;5.47;100.00;98797.47;5032552;28;20199;-71
2021/12/01 00:51:37;;;;;;;5.35;4.05;;;;;;;5.40;100.00;98802.28;5032430;28;20250;-73
2021/12/01 00:54:04;;;;;;;4.05;3.65;;;;;;;5.40;100.00;98801.41;5032683;28;20225;-72
2021/12/01 00:56:31;;;;;;;4.05;3.75;;;;;;;5.39;100.00;98800.56;5032928;28;20234;-73
2021/12/01 00:58:57;;;;;;;4.40;3.95;;;;;;;5.38;100.00;98790.81;5032816;28;20248;-72
2021/12/01 01:01:24;;;;;;;4.80;4.40;;;;;;;5.49;100.00;98795.59;5035520;28;20302;-72
2021/12/01 01:03:51;;;;;;;5.50;4.25;;;;;;;5.37;100.00;98788.22;5037080;28;20238;-72
2021/12/01 01:06:17;;;;;;;4.90;4.30;;;;;;;5.36;100.00;98783.81;5037146;28;20242;-71
2021/12/01 01:08:46;;;;;;;5.35;4.75;;;;;;;5.45;100.00;98780.72;5035842;28;20313;-73
2021/12/01 01:16:51;;;;;;;5.20;4.63;;;;;;;5.56;100.00;98766.78;5016698;28;20207;-72
2021/12/01 01:19:19;;;;;;;5.72;5.05;;;;;;;5.49;100.00;98762.72;5016939;28;20631;-72
2021/12/01 01:21:50;;;;;;;6.30;5.70;;;;;;;5.48;100.00;98755.66;5031737;28;20621;-73
2021/12/01 01:24:19;;;;;;;7.22;6.28;;;;;;;5.58;100.00;98754.22;5036065;28;20698;-72
2021/12/01 01:26:46;;;;;;;9.25;7.25;;;;;;;5.55;100.00;98749.91;5035888;28;20229;-72
2021/12/01 01:29:13;;;;;;;8.98;7.15;;;;;;;5.61;100.00;98746.06;5036834;28;20233;-72
2021/12/01 01:31:40;;;;;;;7.93;6.40;;;;;;;5.64;100.00;98737.91;5036145;28;20203;-72
2021/12/01 01:34:07;;;;;;;9.43;7.97;;;;;;;5.46;100.00;98742.38;5036310;28;20660;-71
2021/12/01 01:36:33;;;;;;;10.73;8.75;;;;;;;5.68;100.00;98735.94;5035830;28;20285;-72
2021/12/01 01:39:01;;;;;;;14.73;9.95;;;;;;;5.58;100.00;98717.69;5034047;28;20234;-73
2021/12/01 01:41:29;;;;;;;12.90;9.88;;;;;;;5.60;100.00;98731.84;5032911;28;20218;-72
2021/12/01 01:43:56;;;;;;;13.40;10.95;;;;;;;5.75;100.00;98722.19;5036222;28;20230;-73
2021/12/01 01:46:23;;;;;;;13.00;10.48;;;;;;;5.84;100.00;98715.50;5035782;28;20245;-72
2021/12/01 01:48:53;;;;;;;13.63;10.77;;;;;;;5.78;100.00;98708.66;5036313;28;20289;-72
2021/12/01 01:51:22;;;;;;;14.15;10.65;;;;;;;5.83;100.00;98713.75;5035027;28;20579;-73
2021/12/01 01:53:52;;;;;;;13.60;10.48;;;;;;;5.75;100.00;98707.97;5036074;28;20218;-71
2021/12/01 01:56:18;;;;;;;15.35;10.50;;;;;;;5.90;100.00;98701.81;5035535;28;20210;-72
2021/12/01 01:58:47;;;;;;;13.88;11.00;;;;;;;5.77;100.00;98708.75;5035253;28;20233;-72
2021/12/01 02:01:24;;;;;;;12.88;10.35;;;;;;;5.78;100.00;98707.78;5035563;28;20626;-71
2021/12/01 02:03:51;;;;;;;20.70;11.77;;;;;;;5.84;100.00;98723.50;5031000;28;20194;-71
2021/12/01 02:06:23;;;;;;;12.70;10.63;;;;;;;5.74;100.00;98715.09;5035463;28;20245;-71
2021/12/01 02:08:51;;;;;;;13.98;11.00;;;;;;;5.73;100.00;98709.84;5035004;28;20991;-71
2021/12/01 02:11:19;;;;;;;14.52;10.45;;;;;;;5.62;100.00;98705.06;5034480;28;20211;-72
2021/12/01 02:13:51;;;;;;;12.02;10.15;;;;;;;5.74;100.00;98708.88;5034796;28;20209;-72
2021/12/01 02:16:19;;;;;;;14.00;9.52;;;;;;;5.74;100.00;98698.22;5035676;28;20214;-73
2021/12/01 02:18:47;;;;;;;12.88;9.68;;;;;;;5.71;100.00;98698.38;5035147;28;20230;-72
2021/12/01 02:21:16;;;;;;;10.77;8.75;;;;;;;5.79;100.00;98685.50;5038049;28;20221;-72
2021/12/01 02:23:45;;;;;;;10.80;9.55;;;;;;;5.71;100.00;98671.66;5044785;28;20195;-72
2021/12/01 02:26:13;;;;;;;10.82;8.40;;;;;;;5.77;100.00;98671.34;5035288;28;20605;-72
2021/12/01 02:28:41;;;;;;;9.60;7.82;;;;;;;5.89;100.00;98664.47;5034668;28;20245;-72
2021/12/01 02:31:09;;;;;;;10.32;7.72;;;;;;;5.96;100.00;98665.91;5034998;28;20309;-72
2021/12/01 02:33:36;;;;;;;9.07;7.30;;;;;;;5.91;100.00;98660.78;5035030;28;20232;-73
2021/12/01 02:36:02;;;;;;;7.65;6.68;;;;;;;5.93;100.00;98640.19;5035210;28;20596;-72
2021/12/01 02:38:31;;;;;;;7.95;6.10;;;;;;;5.82;100.00;98642.56;5034440;28;20194;-72
2021/12/01 02:40:58;;;;;;;8.82;6.75;;;;;;;5.67;100.00;98625.56;5033614;28;20230;-71
2021/12/01 02:43:24;;;;;;;7.53;6.75;;;;;;;5.84;100.00;98616.66;5034568;28;20245;-72
2021/12/01 02:45:53;;;;;;;10.20;8.25;;;;;;;5.79;100.00;98616.03;5034449;28;20649;-72
2021/12/01 02:48:20;;;;;;;7.95;7.15;;;;;;;5.78;100.00;98609.81;5035062;28;20186;-71
2021/12/01 02:50:47;;;;;;;9.13;7.38;;;;;;;5.87;100.00;98602.25;5034090;28;20250;-71
2021/12/01 02:53:20;;;;;;;8.50;7.70;;;;;;;5.84;100.00;98587.25;5034944;28;20245;-71
2021/12/01 02:55:54;;;;;;;8.60;7.78;;;;;;;5.99;100.00;98593.59;5034604;28;20186;-72
2021/12/01 02:58:22;;;;;;;9.70;7.60;;;;;;;5.92;100.00;98585.00;5015097;28;20205;-72
2021/12/01 03:00:51;;;;;;;10.68;7.55;;;;;;;5.85;100.00;98572.94;5021748;28;20546;-72
2021/12/01 03:03:18;;;;;;;8.63;6.70;;;;;;;5.87;100.00;98571.06;5034383;28;20186;-73
2021/12/01 03:05:47;;;;;;;8.85;7.95;;;;;;;5.82;100.00;98562.44;5034248;28;20290;-71
2021/12/01 03:08:16;;;;;;;9.63;7.57;;;;;;;5.80;100.00;98561.66;5033615;28;20309;-71
2021/12/01 03:10:44;;;;;;;8.43;7.53;;;;;;;5.87;100.00;98554.16;5033948;28;20242;-72
2021/12/01 03:13:12;;;;;;;8.68;7.78;;;;;;;6.01;100.00;98551.63;5034251;28;20282;-72
2021/12/01 03:15:38;;;;;;;9.25;7.97;;;;;;;5.93;100.00;98546.69;5034397;28;20234;-71
2021/12/01 03:18:05;;;;;;;9.15;7.25;;;;;;;6.00;100.00;98540.06;5033854;28;20610;-72
2021/12/01 03:20:32;;;;;;;8.90;7.53;;;;;;;6.04;100.00;98533.59;5033739;28;20685;-73
2021/12/01 03:22:59;;;;;;;8.82;7.35;;;;;;;5.91;100.00;98523.66;5033798;28;20298;-72
2021/12/01 03:25:27;;;;;;;10.82;8.00;;;;;;;5.96;100.00;98514.47;5034076;28;20276;-74
2021/12/01 03:27:54;;;;;;;11.32;8.35;;;;;;;5.96;100.00;98517.13;5033718;28;20198;-72
2021/12/01 03:30:22;;;;;;;11.27;7.40;;;;;;;6.02;100.00;98523.97;5034010;28;20302;-73
2021/12/01 03:32:50;;;;;;;10.43;9.00;;;;;;;5.99;100.00;98510.75;5034132;28;20210;-71
2021/12/01 03:35:17;;;;;;;10.13;7.70;;;;;;;5.94;100.00;98510.13;5033780;28;20179;-72
2021/12/01 03:37:46;;;;;;;8.63;7.30;;;;;;;5.80;100.00;98501.06;5033487;28;20285;-72
2021/12/01 03:40:15;;;;;;;8.85;7.35;;;;;;;5.88;100.00;98492.66;5033517;28;20218;-73
2021/12/01 03:42:44;;;;;;;9.73;7.88;;;;;;;5.91;100.00;98481.78;5014272;28;20199;-71
2021/12/01 03:45:12;;;;;;;11.40;8.23;;;;;;;5.92;100.00;98482.63;5014297;28;20187;-72
2021/12/01 03:47:40;;;;;;;9.65;7.60;;;;;;;5.88;100.00;98459.72;5016632;28;20615;-72
2021/12/01 03:50:09;;;;;;;8.57;7.35;;;;;;;5.95;100.00;98459.31;5031850;28;20191;-72
2021/12/01 03:52:36;;;;;;;8.68;7.00;;;;;;;5.93;100.00;98445.16;5031756;28;20268;-73
2021/12/01 03:55:03;;;;;;;8.00;7.18;;;;;;;6.05;100.00;98441.78;5033451;28;20289;-72
2021/12/01 03:57:30;;;;;;;10.18;7.60;;;;;;;6.02;100.00;98430.44;5033316;28;20222;-71
2021/12/01 03:59:57;;;;;;;9.65;7.50;;;;;;;6.13;99.82;98435.13;5033378;28;20249;-72
2021/12/01 04:02:23;;;;;;;9.13;6.50;;;;;;;6.03;98.77;98414.28;5033237;28;20226;-72
2021/12/01 04:04:52;;;;;;;7.72;6.45;;;;;;;6.08;98.54;98400.66;5033508;28;20245;-71
2021/12/01 04:07:19;;;;;;;8.65;6.72;;;;;;;5.94;98.20;98398.81;5033251;28;20203;-73
2021/12/01 04:09:46;;;;;;;10.50;6.50;;;;;;;5.95;98.50;98397.88;5033292;28;20194;-73
2021/12/01 04:12:13;;;;;;;7.20;5.80;;;;;;;5.98;98.84;98376.31;5033225;28;20245;-73
2021/12/01 04:14:40;;;;;;;14.70;7.25;;;;;;;6.00;97.80;98395.78;5013680;28;20246;-73
2021/12/01 04:17:07;;;;;;;7.40;6.65;;;;;;;6.08;97.16;98383.78;5013736;28;20247;-73
2021/12/01 04:19:33;;;;;;;7.47;6.68;;;;;;;6.13;97.86;98379.00;5031475;28;20230;-73
2021/12/01 04:22:02;;;;;;;7.35;6.15;;;;;;;6.07;97.39;98385.59;5033199;28;20226;-73
2021/12/01 04:24:29;;;;;;;6.30;5.70;;;;;;;6.11;97.60;98378.28;5033292;28;20551;-73
2021/12/01 04:26:56;;;;;;;7.38;6.22;;;;;;;6.00;97.68;98360.19;5033028;28;20195;-73
2021/12/01 04:29:23;;;;;;;8.18;6.30;;;;;;;5.92;99.37;98362.41;5033361;28;20198;-73
2021/12/01 04:31:50;;;;;;;10.13;6.25;;;;;;;6.01;100.00;98353.88;5032310;28;20218;-73
2021/12/01 04:34:20;;;;;;;6.78;5.78;;;;;;;5.99;100.00;98347.75;5033834;28;20194;-72
2021/12/01 04:36:48;;;;;;;7.47;6.57;;;;;;;6.05;99.18;98345.59;5032963;28;20218;-71
2021/12/01 04:39:18;;;;;;;7.32;6.40;;;;;;;6.05;98.99;98342.91;5032497;28;20198;-74
2021/12/01 04:41:51;;;;;;;7.15;6.45;;;;;;;6.03;98.06;98330.59;5033482;28;20644;-72
2021/12/01 04:44:19;;;;;;;8.75;6.43;;;;;;;6.05;97.35;98323.38;5032747;28;20202;-71
2021/12/01 04:46:47;;;;;;;6.93;5.93;;;;;;;6.08;97.03;98316.97;5033051;28;20617;-72
2021/12/01 04:49:17;;;;;;;7.20;6.50;;;;;;;6.12;97.82;98323.84;5032354;28;20198;-74
2021/12/01 04:51:47;;;;;;;6.00;5.28;;;;;;;6.11;96.99;98311.47;5032204;28;20230;-72
2021/12/01 04:54:16;;;;;;;6.18;5.57;;;;;;;5.99;97.70;98313.91;5033022;28;20716;-74
2021/12/01 04:56:44;;;;;;;6.53;5.35;;;;;;;6.13;96.95;98307.75;5032878;28;20614;-72
2021/12/01 04:59:11;;;;;;;8.27;5.80;;;;;;;6.20;95.75;98297.53;5032273;28;20230;-72
2021/12/01 05:01:40;;;;;;;6.65;6.00;;;;;;;6.16;96.38;98293.31;5032757;28;20245;-72
2021/12/01 05:04:08;;;;;;;6.18;5.65;;;;;;;6.29;96.55;98294.31;5032206;28;20229;-71
2021/12/01 05:06:34;;;;;;;9.15;5.88;;;;;;;6.28;95.79;98276.53;5032924;28;20610;-71
2021/12/01 05:09:01;;;;;;;7.38;6.15;;;;;;;6.37;95.83;98275.94;5032130;28;20760;-72
2021/12/01 05:11:29;;;;;;;5.55;5.05;;;;;;;6.21;95.38;98273.38;5032723;28;20301;-72
2021/12/01 05:13:56;;;;;;;6.03;5.43;;;;;;;6.29;95.88;98266.69;5032942;28;20624;-72
2021/12/01 05:16:23;;;;;;;6.13;4.93;;;;;;;6.38;95.05;98274.16;5032835;28;20241;-72
2021/12/01 05:18:50;;;;;;;5.80;5.30;;;;;;;6.33;94.71;98265.53;5031524;28;20225;-72
2021/12/01 05:21:17;;;;;;;6.00;5.25;;;;;;;6.23;94.71;98254.56;5032129;28;20286;-72
2021/12/01 05:23:44;;;;;;;6.43;5.65;;;;;;;6.32;94.86;98245.13;5032335;28;20681;-73
2021/12/01 05:26:11;;;;;;;6.65;6.05;;;;;;;6.37;95.15;98243.88;5032659;28;20593;-73
2021/12/01 05:28:40;;;;;;;7.25;5.43;;;;;;;6.28;96.03;98244.44;5032250;28;20279;-71
2021/12/01 05:31:07;;;;;;;6.68;5.43;;;;;;;6.25;96.21;98234.81;5032179;28;20229;-71
2021/12/01 05:33:35;;;;;;;9.48;5.82;;;;;;;6.19;97.01;98240.53;5047171;28;20348;-73
2021/12/01 05:36:02;;;;;;;7.40;5.38;;;;;;;6.24;97.43;98246.47;5036820;28;20627;-72
2021/12/01 05:38:28;;;;;;;6.15;5.28;;;;;;;6.28;97.54;98241.78;5031662;28;20297;-74
2021/12/01 05:40:55;;;;;;;6.28;5.68;;;;;;;6.42;96.34;98227.53;5032196;28;20238;-71
2021/12/01 05:43:22;;;;;;;6.82;5.28;;;;;;;6.38;95.80;98226.91;5032080;28;20206;-73
2021/12/01 05:45:51;;;;;;;5.28;4.75;;;;;;;6.38;96.25;98218.88;5032483;28;21060;-71
2021/12/01 05:48:18;;;;;;;5.90;4.97;;;;;;;6.33;95.78;98212.09;5032292;28;20230;-72
2021/12/01 05:50:45;;;;;;;6.43;5.47;;;;;;;6.39;96.66;98193.00;5034841;28;20187;-72
2021/12/01 05:53:13;;;;;;;7.25;5.10;;;;;;;6.42;96.26;98188.31;5034904;28;20241;-72
2021/12/01 05:55:41;;;;;;;5.60;4.95;;;;;;;6.39;95.62;98183.16;5035164;28;20202;-71
2021/12/01 05:58:09;;;;;;;5.13;4.65;;;;;;;6.45;95.80;98176.56;5034651;28;20294;-72
2021/12/01 06:00:36;;;;;;;5.82;5.32;;;;;;;6.36;96.51;98161.97;5035277;28;20286;-72
2021/12/01 06:03:04;;;;;;;7.93;6.40;;;;;;;6.32;96.24;98175.63;5034563;28;20277;-73
2021/12/01 06:05:31;;;;;;;5.65;4.82;;;;;;;6.36;97.66;98178.00;5035469;28;20191;-73
2021/12/01 06:07:58;;;;;;;6.75;5.85;;;;;;;6.33;97.59;98151.47;5034895;28;20262;-72
2021/12/01 06:10:25;;;;;;;6.05;5.45;;;;;;;6.31;97.99;98164.09;5035346;28;20187;-71
2021/12/01 06:12:52;;;;;;;5.90;5.30;;;;;;;6.18;98.38;98153.31;5034832;28;20578;-71
2021/12/01 06:15:19;;;;;;;6.30;5.55;;;;;;;6.24;99.80;98138.69;5034985;28;20270;-72
2021/12/01 06:17:46;;;;;;;5.80;5.28;;;;;;;6.30;100.00;98146.31;5035072;28;20245;-72
2021/12/01 06:20:15;;;;;;;6.60;5.40;;;;;;;6.38;99.29;98137.81;5034439;28;20701;-73
2021/12/01 06:22:43;;;;;;;8.13;5.55;;;;;;;6.25;99.72;98133.25;5035018;28;20186;-73
2021/12/01 06:25:11;;;;;;;6.03;5.53;;;;;;;6.38;100.00;98130.66;5034868;28;20739;-71
2021/12/01 06:27:38;;;;;;;5.88;5.28;;;;;;;6.33;100.00;98129.22;5035044;28;20230;-73
2021/12/01 06:30:06;;;;;;;4.93;4.43;;;;;;;6.34;100.00;98123.78;5034875;28;20617;-73
2021/12/01 06:32:33;;;;;;;4.93;4.53;;;;;;;6.29;100.00;98128.56;5033954;28;20258;-71
2021/12/01 06:34:59;;;;;;;5.90;5.35;;;;;;;6.32;100.00;98112.31;5034267;28;20336;-74
2021/12/01 06:37:31;;;;;;;5.63;4.30;;;;;;;6.35;100.00;98105.91;5035426;28;20630;-72
2021/12/01 06:39:58;;;;;;;4.55;3.50;;;;;;;6.37;100.00;98102.19;5035204;28;20206;-72
2021/12/01 06:42:24;;;;;;;5.88;4.20;;;;;;;6.46;100.00;98103.41;5034434;28;20612;-72
2021/12/01 06:44:51;;;;;;;5.45;4.55;;;;;;;6.42;100.00;98096.53;5034539;28;20222;-72
2021/12/01 06:47:18;;;;;;;7.03;4.50;;;;;;;6.52;100.00;98097.66;5034125;28;20222;-72
2021/12/01 06:49:45;;;;;;;7.70;4.70;;;;;;;6.57;100.00;98094.69;5034261;28;20664;-72
2021/12/01 06:52:21;;;;;;;4.07;3.67;;;;;;;6.57;100.00;98090.19;5034128;28;20305;-73
2021/12/01 06:54:50;;;;;;;4.00;3.60;;;;;;;6.58;100.00;98088.38;5032197;28;20206;-71
2021/12/01 06:57:16;;;;;;;3.75;3.40;;;;;;;6.48;100.00;98072.94;5014609;28;20219;-72
2021/12/01 06:59:43;;;;;;;3.88;3.22;;;;;;;6.33;100.00;98073.97;5014051;28;20611;-71
2021/12/01 07:02:10;;;;;;;6.60;4.35;;;;;;;6.50;100.00;98066.66;5014363;28;20286;-71
2021/12/01 07:04:36;;;;;;;4.47;3.35;;;;;;;6.51;100.00;98065.66;5030333;28;20232;-72
2021/12/01 07:07:04;;;;;;;6.15;4.03;;;;;;;6.64;100.00;98069.25;5033513;28;20538;-72
2021/12/01 07:09:31;;;;;;;4.03;3.72;;;;;;;6.50;100.00;98063.97;5033609;28;20292;-71
2021/12/01 07:11:59;;;;;;;3.47;3.17;;;;;;;6.46;100.00;98071.31;5033796;28;20218;-71
2021/12/01 07:14:25;;;;;;;3.95;3.60;;;;;;;6.50;100.00;98066.66;5034922;28;20203;-72
2021/12/01 07:16:52;;;;;;;4.88;3.75;;;;;;;6.37;100.00;98064.75;5033875;28;20198;-71
2021/12/01 07:19:19;;;;;;;3.63;3.13;;;;;;;6.44;100.00;98060.75;5034032;28;20692;-72
2021/12/01 07:21:45;;;;;;;3.58;2.80;;;;;;;6.45;100.00;98051.75;5033794;28;20287;-73
2021/12/01 07:24:12;;;;;;;4.68;3.35;;;;;;;6.58;100.00;98046.47;5033770;28;20274;-73
2021/12/01 07:26:39;;;;;;;3.50;3.20;;;;;;;6.57;100.00;98054.56;5031804;28;20282;-73
2021/12/01 07:29:07;;;;;;;3.63;2.90;;;;;;;6.62;100.00;98055.97;5034366;28;20252;-72
2021/12/01 07:31:34;;;;;;;3.78;2.90;;;;;;;6.55;100.00;98033.28;5033921;28;20237;-74
2021/12/01 07:34:01;;;;;;;6.57;4.38;;;;;;;6.52;100.00;98030.81;5033259;28;20711;-74
2021/12/01 07:36:27;;;;;;;3.00;2.70;;;;;;;6.55;100.00;98021.72;5031850;28;20617;-73
2021/12/01 07:38:54;;;;;;;3.10;2.80;;;;;;;6.50;100.00;98016.69;5013061;28;20278;-74
2021/12/01 07:41:21;;;;;;;5.15;4.30;;;;;;;6.64;100.00;98010.41;5013089;28;20215;-74
2021/12/01 07:43:48;;;;;;;3.30;2.63;;;;;;;6.60;100.00;98007.13;5013402;28;20229;-74
2021/12/01 07:46:16;;;;;;;4.10;3.70;;;;;;;6.61;100.00;98000.78;5013259;28;20187;-74
2021/12/01 07:48:43;;;;;;;3.28;2.80;;;;;;;6.62;100.00;97980.25;5031978;28;20230;-74
2021/12/01 07:51:10;;;;;;;2.90;2.60;;;;;;;6.59;100.00;97983.13;5032649;28;20618;-75
2021/12/01 07:53:37;;;;;;;3.65;3.28;;;;;;;6.64;100.00;97970.31;5031856;28;20665;-74
2021/12/01 07:56:04;;;;;;;5.07;4.68;;;;;;;6.69;100.00;97973.50;5031135;28;20324;-73
2021/12/01 07:58:31;;;;;;;3.13;2.90;;;;;;;6.77;100.00;97959.63;5030514;28;20229;-74
2021/12/01 08:00:57;;;;;;;3.80;3.47;;;;;;;6.82;100.00;97944.13;5030986;28;20242;-73
2021/12/01 08:03:25;;;;;;;3.85;3.17;;;;;;;6.93;100.00;97941.56;5030684;28;20198;-73
2021/12/01 08:05:52;;;;;;;4.07;3.00;;;;;;;6.99;100.00;97937.59;5032276;28;20603;-73
2021/12/01 08:08:19;;;;;;;3.40;3.10;;;;;;;7.09;100.00;97936.81;5031172;28;20604;-73
2021/12/01 08:10:46;;;;;;;3.63;3.33;;;;;;;7.10;100.00;97929.69;5030900;28;20609;-73
2021/12/01 08:13:13;;;;;;;3.42;2.83;;;;;;;6.92;100.00;97915.78;5030085;28;20349;-74
2021/12/01 08:15:40;;;;;;;3.25;2.95;;;;;;;6.95;100.00;97922.72;5030468;28;20194;-73
2021/12/01 08:18:07;;;;;;;2.75;2.55;;;;;;;6.85;100.00;97915.34;5031145;28;20206;-75
2021/12/01 08:20:36;;;;;;;3.67;2.90;;;;;;;6.96;100.00;97908.38;5031040;28;20699;-73
2021/12/01 08:23:03;;;;;;;3.08;2.78;;;;;;;6.96;100.00;97903.88;5030486;28;20191;-73
2021/12/01 08:25:30;;;;;;;2.90;2.40;;;;;;;6.87;100.00;97913.41;5030776;28;20280;-73
2021/12/01 08:27:59;;;;;;;3.42;2.60;;;;;;;6.94;100.00;97899.59;5031107;28;20707;-75
2021/12/01 08:30:26;;;;;;;2.72;2.53;;;;;;;6.95;100.00;97898.66;5030267;28;20198;-74
2021/12/01 08:32:54;;;;;;;2.58;2.00;;;;;;;7.00;100.00;97896.50;5030243;28;20314;-74
2021/12/01 08:35:21;;;;;;;3.35;2.85;;;;;;;7.03;100.00;97890.91;5029937;28;20214;-75
2021/12/01 08:37:49;;;;;;;2.60;2.40;;;;;;;7.15;100.00;97898.09;5030607;28;20569;-75
2021/12/01 08:40:18;;;;;;;1.90;1.75;;;;;;;7.04;100.00;97884.63;5030573;28;20244;-73
2021/12/01 08:42:46;;;;;;;3.10;2.85;;;;;;;7.00;100.00;97885.78;5029824;28;20240;-74
2021/12/01 08:45:13;;;;;;;3.20;2.58;;;;;;;7.00;100.00;97881.28;5029723;28;20229;-73
2021/12/01 08:47:40;;;;;;;3.90;2.60;;;;;;;7.03;100.00;97875.72;5031472;28;20615;-75
2021/12/01 08:50:08;;;;;;;8.27;2.55;;;;;;;7.10;100.00;97873.47;5030552;28;20626;-74
2021/12/01 08:52:35;;;;;;;2.45;2.25;;;;;;;7.12;100.00;97863.50;5030694;28;20304;-73
2021/12/01 08:55:04;;;;;;;3.30;3.00;;;;;;;7.19;100.00;97858.56;5029827;28;20201;-73
2021/12/01 08:57:31;;;;;;;2.55;2.33;;;;;;;7.23;100.00;97862.72;5030749;28;20210;-74
2021/12/01 08:59:58;;;;;;;3.55;2.60;;;;;;;7.30;100.00;97856.84;5030513;28;20187;-73
2021/12/01 09:02:25;;;;;;;3.33;1.80;;;;;;;7.29;100.00;97851.59;5030036;28;20215;-74
2021/12/01 09:04:51;;;;;;;2.75;2.50;;;;;;;7.50;100.00;97851.84;5030356;28;20195;-74
2021/12/01 09:07:19;;;;;;;2.05;1.85;;;;;;;7.31;100.00;97847.81;5029832;28;20245;-73
2021/12/01 09:09:46;;;;;;;5.05;2.30;;;;;;;7.39;100.00;97843.72;5031099;28;20231;-73
2021/12/01 09:12:15;;;;;;;2.40;1.85;;;;;;;7.44;100.00;97842.44;5031062;28;20638;-73
2021/12/01 09:14:42;;;;;;;2.22;1.95;;;;;;;7.42;100.00;97832.81;5031193;28;20199;-75
2021/12/01 09:17:09;;;;;;;4.28;2.20;;;;;;;7.42;100.00;97830.13;5031029;28;20198;-74
2021/12/01 09:19:36;;;;;;;2.13;1.52;;;;;;;7.50;100.00;97835.75;5031011;28;20514;-74
2021/12/01 09:22:03;;;;;;;2.60;2.22;;;;;;;7.61;100.00;97825.13;5033025;28;20230;-74
2021/12/01 09:24:30;;;;;;;4.00;1.90;;;;;;;7.61;100.00;97822.44;5034846;28;20222;-74
2021/12/01 09:26:57;;;;;;;2.55;2.25;;;;;;;7.48;100.00;97817.16;5033908;28;20227;-74
2021/12/01 09:29:27;;;;;;;2.83;2.20;;;;;;;7.59;100.00;97816.34;5034532;28;20203;-74
2021/12/01 09:31:54;;;;;;;2.08;1.90;;;;;;;7.56;100.00;97802.34;5022445;28;20206;-75
2021/12/01 09:34:21;;;;;;;2.42;2.22;;;;;;;7.51;100.00;97802.69;5031758;28;20676;-74
2021/12/01 09:36:47;;;;;;;4.80;2.28;;;;;;;7.62;100.00;97793.81;5034244;28;20203;-74
2021/12/01 09:39:14;;;;;;;3.40;2.72;;;;;;;7.63;100.00;97793.72;5034256;28;20591;-73
2021/12/01 09:41:41;;;;;;;3.42;1.77;;;;;;;7.63;100.00;97796.41;5033526;28;20211;-75
2021/12/01 09:44:08;;;;;;;2.55;1.80;;;;;;;7.54;100.00;97783.69;5033824;28;20253;-73
2021/12/01 09:46:36;;;;;;;2.28;2.05;;;;;;;7.59;100.00;97788.72;5033554;28;20207;-74
2021/12/01 09:49:04;;;;;;;1.83;1.50;;;;;;;7.67;100.00;97776.47;5034525;28;20206;-74
2021/12/01 09:51:31;;;;;;;3.88;2.10;;;;;;;7.76;100.00;97785.63;5034356;28;20945;-74
2021/12/01 09:54:00;;;;;;;1.90;1.80;;;;;;;7.66;100.00;97769.38;5033853;28;20310;-74
2021/12/01 09:56:27;;;;;;;2.20;1.73;;;;;;;7.68;100.00;97755.88;5033626;28;20199;-74
2021/12/01 09:58:54;;;;;;;2.30;2.10;;;;;;;7.67;100.00;97755.03;5033387;28;20211;-74
2021/12/01 10:01:23;;;;;;;3.10;2.45;;;;;;;7.75;100.00;97749.06;5033320;28;20250;-73
2021/12/01 10:03:52;;;;;;;1.92;1.60;;;;;;;7.72;100.00;97744.81;5033792;28;20516;-74
2021/12/01 10:06:20;;;;;;;1.98;1.50;;;;;;;7.67;100.00;97736.28;5032731;28;20246;-74
2021/12/01 10:08:50;;;;;;;2.50;2.00;;;;;;;7.75;100.00;97730.31;5032951;28;20686;-73
2021/12/01 10:11:18;;;;;;;2.95;1.50;;;;;;;7.68;100.00;97729.94;5033346;28;20191;-73
2021/12/01 10:13:50;;;;;;;2.20;1.70;;;;;;;7.67;100.00;97716.69;5033359;28;20224;-75
2021/12/01 10:16:18;;;;;;;2.30;2.05;;;;;;;7.65;100.00;97716.78;5033659;28;20188;-75
2021/12/01 10:18:46;;;;;;;1.90;1.80;;;;;;;7.56;100.00;97716.63;5033287;28;20199;-75
2021/12/01 10:21:17;;;;;;;2.45;2.03;;;;;;;7.80;100.00;97711.22;5032552;28;20203;-74
2021/12/01 10:23:47;;;;;;;3.15;2.30;;;;;;;7.84;100.00;97708.19;5033416;28;21052;-74
2021/12/01 10:26:21;;;;;;;1.88;1.70;;;;;;;7.83;100.00;97700.28;5033599;28;20251;-73
2021/12/01 10:28:50;;;;;;;2.10;1.90;;;;;;;7.80;100.00;97700.50;5033166;28;20199;-73
2021/12/01 10:31:29;;;;;;;2.75;2.20;;;;;;;7.93;100.00;97706.63;5032832;28;20192;-74
2021/12/01 10:33:56;;;;;;;3.30;2.20;;;;;;;7.88;100.00;97700.78;5032095;28;20227;-73
2021/12/01 10:36:27;;;;;;;1.98;1.80;;;;;;;7.85;100.00;97701.03;5033143;28;20619;-74
2021/12/01 10:39:05;;;;;;;2.47;2.05;;;;;;;7.61;100.00;97676.97;5033040;28;20198;-73
2021/12/01 10:41:36;;;;;;;2.50;1.90;;;;;;;7.69;100.00;97686.13;5032535;28;20621;-74
2021/12/01 10:44:09;;;;;;;2.65;1.92;;;;;;;7.68;100.00;97678.19;5031380;28;20225;-73
2021/12/01 10:46:44;;;;;;;2.53;2.20;;;;;;;7.59;100.00;97655.66;5032801;28;20195;-74
2021/12/01 10:49:10;;;;;;;3.33;1.90;;;;;;;7.66;100.00;97666.75;5032725;28;20190;-75
2021/12/01 10:51:41;;;;;;;3.20;2.60;;;;;;;7.77;100.00;97661.41;5033025;28;20265;-74
2021/12/01 10:54:15;;;;;;;2.10;1.98;;;;;;;7.79;100.00;97640.72;5033337;28;20272;-74
2021/12/01 10:56:41;;;;;;;2.30;2.10;;;;;;;7.78;100.00;97630.09;5032733;28;20253;-74
2021/12/01 10:59:13;;;;;;;2.88;2.53;;;;;;;7.85;100.00;97632.22;5032236;28;20234;-73
2021/12/01 11:01:39;;;;;;;2.67;2.00;;;;;;;7.89;100.00;97644.41;5032577;28;20261;-74
2021/12/01 11:04:06;;;;;;;3.47;2.60;;;;;;;7.97;100.00;97633.06;5032131;28;20207;-74
2021/12/01 11:06:40;;;;;;;3.30;2.63;;;;;;;8.00;100.00;97621.25;5032758;28;20192;-75
2021/12/01 11:09:07;;;;;;;3.97;3.28;;;;;;;8.06;100.00;97615.41;5031814;28;20255;-74
2021/12/01 11:11:42;;;;;;;3.17;2.88;;;;;;;8.08;100.00;97619.66;5031884;28;20193;-75
2021/12/01 11:14:14;;;;;;;3.78;3.10;;;;;;;8.12;100.00;97609.56;5031635;28;20210;-74
2021/12/01 11:16:43;;;;;;;4.05;2.80;;;;;;;8.10;100.00;97609.69;5031621;28;20192;-74
2021/12/01 11:19:10;;;;;;;3.92;3.38;;;;;;;8.11;100.00;97614.06;5032432;28;20630;-74
2021/12/01 11:21:38;;;;;;;2.72;2.50;;;;;;;8.22;100.00;97610.53;5031873;28;20254;-74
2021/12/01 11:24:09;;;;;;;3.03;2.80;;;;;;;8.23;100.00;97590.81;5028612;28;20670;-74
2021/12/01 11:26:36;;;;;;;5.38;3.78;;;;;;;8.22;100.00;97588.22;5029576;28;20249;-74
2021/12/01 11:29:06;;;;;;;6.00;3.90;;;;;;;8.21;100.00;97587.38;5032000;28;20207;-74
2021/12/01 11:31:35;;;;;;;3.83;3.17;;;;;;;8.20;100.00;97584.81;5024558;28;20199;-73
2021/12/01 11:34:05;;;;;;;3.50;3.08;;;;;;;8.15;99.70;97569.94;5030290;28;20218;-74
2021/12/01 11:36:34;;;;;;;3.80;2.70;;;;;;;8.20;98.93;97579.44;5031865;28;20192;-75
2021/12/01 11:39:04;;;;;;;3.28;2.97;;;;;;;8.11;99.38;97573.00;5030771;28;20211;-75
2021/12/01 11:41:36;;;;;;;3.50;3.20;;;;;;;8.07;100.00;97569.72;5031431;28;20207;-75